KCAD/CAD METAR and TAF weather

Enter ICAO airport designator
Station Type Date Time Source
KCAD METAR 2021/05/14 03:55 UTC NOAA

KCAD 140355Z AUTO 00000KT 10SM CLR 04/M01 A3028 RMK AO2 T00431012


Station Type Date Time Source
KCAD Decoded METAR 2021/05/14 03:55 UTC NOAA

Cadillac / Wexford County, MI, United States (KCAD) 44-17N 085-25W
May 13, 2021 - 11:55 PM EDT / 2021.05.14 0355 UTC
Wind: Calm:0
Visibility: 10 mile(s):0
Sky conditions: clear
Temperature: 39.7 F (4.3 C)
Dew Point: 29.8 F (-1.2 C)
Relative Humidity: 67%
Pressure (altimeter): 30.28 in. Hg (1025 hPa)
ob: KCAD 140355Z AUTO 00000KT 10SM CLR 04/M01 A3028 RMK AO2 T00431012
cycle: 4

Station Type Date Time Source
KCAD TAF UTC NOAA

Error!

Example: see airport list